sensor_id;sensor_type;location;lat;lon;timestamp;pressure;altitude;pressure_sealevel;temperature;humidity
65329;BME280;51941;52.210;5.158;2022-10-16T00:01:16;100840.19;;;13.45;79.09
65329;BME280;51941;52.210;5.158;2022-10-16T00:03:46;100845.31;;;13.51;79.04
65329;BME280;51941;52.210;5.158;2022-10-16T00:06:13;100848.28;;;13.55;79.04
65329;BME280;51941;52.210;5.158;2022-10-16T00:08:40;100842.16;;;13.54;78.86
65329;BME280;51941;52.210;5.158;2022-10-16T00:11:09;100843.28;;;13.58;78.78
65329;BME280;51941;52.210;5.158;2022-10-16T00:13:38;100840.28;;;13.55;78.93
65329;BME280;51941;52.210;5.158;2022-10-16T00:16:06;100839.25;;;13.56;78.48
65329;BME280;51941;52.210;5.158;2022-10-16T00:18:33;100841.94;;;13.61;78.27
65329;BME280;51941;52.210;5.158;2022-10-16T00:21:06;100843.31;;;13.63;78.59
65329;BME280;51941;52.210;5.158;2022-10-16T00:23:33;100782.63;;;13.34;78.02
65329;BME280;51941;52.210;5.158;2022-10-16T00:26:02;100824.94;;;13.62;78.15
65329;BME280;51941;52.210;5.158;2022-10-16T00:28:30;100826.31;;;13.64;78.00
65329;BME280;51941;52.210;5.158;2022-10-16T00:30:57;100788.31;;;13.42;77.60
65329;BME280;51941;52.210;5.158;2022-10-16T00:33:24;100828.72;;;13.66;77.56
65329;BME280;51941;52.210;5.158;2022-10-16T00:35:50;100825.03;;;13.72;77.75
65329;BME280;51941;52.210;5.158;2022-10-16T00:38:18;100824.44;;;13.65;76.98
65329;BME280;51941;52.210;5.158;2022-10-16T00:40:45;100829.00;;;13.69;77.14
65329;BME280;51941;52.210;5.158;2022-10-16T00:43:13;100814.97;;;13.74;76.97
65329;BME280;51941;52.210;5.158;2022-10-16T00:45:41;100797.19;;;13.53;76.88
65329;BME280;51941;52.210;5.158;2022-10-16T00:48:10;100832.28;;;13.77;76.86
65329;BME280;51941;52.210;5.158;2022-10-16T00:50:40;100835.22;;;13.80;76.92
65329;BME280;51941;52.210;5.158;2022-10-16T00:53:10;100808.47;;;13.60;76.85
65329;BME280;51941;52.210;5.158;2022-10-16T00:55:38;100833.63;;;13.79;76.83
65329;BME280;51941;52.210;5.158;2022-10-16T00:58:05;100801.00;;;13.62;76.81
65329;BME280;51941;52.210;5.158;2022-10-16T01:00:32;100829.66;;;13.82;76.81
65329;BME280;51941;52.210;5.158;2022-10-16T01:03:00;100844.03;;;13.81;76.61
65329;BME280;51941;52.210;5.158;2022-10-16T01:05:32;100833.09;;;13.77;76.78
65329;BME280;51941;52.210;5.158;2022-10-16T01:08:06;100821.38;;;13.78;76.69
65329;BME280;51941;52.210;5.158;2022-10-16T01:10:39;100824.00;;;13.73;76.78
65329;BME280;51941;52.210;5.158;2022-10-16T01:13:09;100807.00;;;13.79;76.75
65329;BME280;51941;52.210;5.158;2022-10-16T01:15:40;100796.59;;;13.73;76.51
65329;BME280;51941;52.210;5.158;2022-10-16T01:18:14;100828.13;;;13.86;76.77
65329;BME280;51941;52.210;5.158;2022-10-16T01:20:47;100823.06;;;13.89;76.52
65329;BME280;51941;52.210;5.158;2022-10-16T01:23:27;100825.75;;;13.89;76.33
65329;BME280;51941;52.210;5.158;2022-10-16T01:26:12;100821.44;;;13.83;76.64
65329;BME280;51941;52.210;5.158;2022-10-16T01:28:46;100819.38;;;13.90;76.71
65329;BME280;51941;52.210;5.158;2022-10-16T01:31:18;100826.28;;;13.91;76.78
65329;BME280;51941;52.210;5.158;2022-10-16T01:33:50;100816.13;;;13.83;77.05
65329;BME280;51941;52.210;5.158;2022-10-16T01:36:24;100815.56;;;13.81;77.16
65329;BME280;51941;52.210;5.158;2022-10-16T01:38:54;100816.91;;;13.84;77.04
65329;BME280;51941;52.210;5.158;2022-10-16T01:41:27;100819.34;;;13.85;77.27
65329;BME280;51941;52.210;5.158;2022-10-16T01:43:59;100811.06;;;13.87;77.33
65329;BME280;51941;52.210;5.158;2022-10-16T01:46:30;100810.78;;;13.83;77.73
65329;BME280;51941;52.210;5.158;2022-10-16T01:48:58;100818.28;;;13.86;77.85
65329;BME280;51941;52.210;5.158;2022-10-16T01:51:28;100801.09;;;13.72;78.31
65329;BME280;51941;52.210;5.158;2022-10-16T01:53:57;100809.88;;;13.73;78.44
65329;BME280;51941;52.210;5.158;2022-10-16T01:56:26;100836.84;;;13.81;78.65
65329;BME280;51941;52.210;5.158;2022-10-16T01:58:59;100834.97;;;13.82;78.84
65329;BME280;51941;52.210;5.158;2022-10-16T02:01:30;100834.75;;;13.83;78.65
65329;BME280;51941;52.210;5.158;2022-10-16T02:04:01;100802.03;;;13.56;78.81
65329;BME280;51941;52.210;5.158;2022-10-16T02:06:30;100838.44;;;13.82;78.66
65329;BME280;51941;52.210;5.158;2022-10-16T02:08:57;100842.97;;;13.82;78.69
65329;BME280;51941;52.210;5.158;2022-10-16T02:11:25;100792.88;;;13.47;78.95
65329;BME280;51941;52.210;5.158;2022-10-16T02:13:56;100845.28;;;13.73;78.97
65329;BME280;51941;52.210;5.158;2022-10-16T02:16:33;100851.84;;;13.65;79.23
65329;BME280;51941;52.210;5.158;2022-10-16T02:18:59;100856.25;;;13.55;79.88
65329;BME280;51941;52.210;5.158;2022-10-16T02:21:29;100855.94;;;13.51;79.82
65329;BME280;51941;52.210;5.158;2022-10-16T02:24:03;100861.41;;;13.40;80.03
65329;BME280;51941;52.210;5.158;2022-10-16T02:26:37;100865.53;;;13.30;80.26
65329;BME280;51941;52.210;5.158;2022-10-16T02:29:12;100872.63;;;13.25;80.35
65329;BME280;51941;52.210;5.158;2022-10-16T02:31:45;100870.22;;;13.23;80.08
65329;BME280;51941;52.210;5.158;2022-10-16T02:34:14;100861.69;;;13.21;80.14
65329;BME280;51941;52.210;5.158;2022-10-16T02:36:43;100871.19;;;13.17;80.57
65329;BME280;51941;52.210;5.158;2022-10-16T02:39:11;100873.38;;;13.20;80.48
65329;BME280;51941;52.210;5.158;2022-10-16T02:41:38;100873.59;;;13.19;80.50
65329;BME280;51941;52.210;5.158;2022-10-16T02:44:05;100876.59;;;13.22;80.54
65329;BME280;51941;52.210;5.158;2022-10-16T02:46:33;100877.06;;;13.19;81.16
65329;BME280;51941;52.210;5.158;2022-10-16T02:49:03;100884.31;;;13.24;81.00
65329;BME280;51941;52.210;5.158;2022-10-16T02:51:29;100883.00;;;13.26;80.81
65329;BME280;51941;52.210;5.158;2022-10-16T02:53:56;100877.69;;;13.26;80.94
65329;BME280;51941;52.210;5.158;2022-10-16T02:56:23;100885.97;;;13.30;81.25
65329;BME280;51941;52.210;5.158;2022-10-16T02:58:49;100874.31;;;13.31;81.01
65329;BME280;51941;52.210;5.158;2022-10-16T03:01:16;100877.53;;;13.33;81.31
65329;BME280;51941;52.210;5.158;2022-10-16T03:03:44;100872.75;;;13.35;81.06
65329;BME280;51941;52.210;5.158;2022-10-16T03:06:11;100874.88;;;13.33;81.15
65329;BME280;51941;52.210;5.158;2022-10-16T03:08:38;100864.41;;;13.26;81.13
65329;BME280;51941;52.210;5.158;2022-10-16T03:11:05;100873.25;;;13.32;81.33
65329;BME280;51941;52.210;5.158;2022-10-16T03:13:31;100871.09;;;13.29;81.40
65329;BME280;51941;52.210;5.158;2022-10-16T03:15:58;100861.97;;;13.25;81.18
65329;BME280;51941;52.210;5.158;2022-10-16T03:18:25;100868.28;;;13.19;81.33
65329;BME280;51941;52.210;5.158;2022-10-16T03:20:53;100869.19;;;13.08;81.44
65329;BME280;51941;52.210;5.158;2022-10-16T03:23:20;100865.75;;;13.07;81.28
65329;BME280;51941;52.210;5.158;2022-10-16T03:25:47;100849.31;;;12.88;81.71
65329;BME280;51941;52.210;5.158;2022-10-16T03:28:13;100874.13;;;12.99;81.70
65329;BME280;51941;52.210;5.158;2022-10-16T03:30:40;100877.94;;;13.03;81.58
65329;BME280;51941;52.210;5.158;2022-10-16T03:33:07;100890.16;;;13.04;81.77
65329;BME280;51941;52.210;5.158;2022-10-16T03:35:33;100890.72;;;13.06;81.85
65329;BME280;51941;52.210;5.158;2022-10-16T03:38:01;100899.56;;;13.12;81.70
65329;BME280;51941;52.210;5.158;2022-10-16T03:40:28;100898.19;;;13.09;81.95
65329;BME280;51941;52.210;5.158;2022-10-16T03:42:57;100909.34;;;13.06;82.22
65329;BME280;51941;52.210;5.158;2022-10-16T03:45:24;100911.44;;;13.04;82.71
65329;BME280;51941;52.210;5.158;2022-10-16T03:47:51;100904.50;;;13.03;82.76
65329;BME280;51941;52.210;5.158;2022-10-16T03:50:18;100906.13;;;13.04;82.26
65329;BME280;51941;52.210;5.158;2022-10-16T03:52:44;100909.88;;;13.08;82.71
65329;BME280;51941;52.210;5.158;2022-10-16T03:55:12;100900.03;;;13.09;82.71
65329;BME280;51941;52.210;5.158;2022-10-16T03:57:39;100900.28;;;13.07;82.98
65329;BME280;51941;52.210;5.158;2022-10-16T04:00:07;100906.16;;;13.09;82.85
65329;BME280;51941;52.210;5.158;2022-10-16T04:02:42;100918.66;;;13.09;82.63
65329;BME280;51941;52.210;5.158;2022-10-16T04:05:09;100917.59;;;13.10;82.49
65329;BME280;51941;52.210;5.158;2022-10-16T04:07:36;100922.91;;;13.10;82.55
65329;BME280;51941;52.210;5.158;2022-10-16T04:10:04;100907.97;;;13.04;82.94
65329;BME280;51941;52.210;5.158;2022-10-16T04:12:32;100919.22;;;13.11;82.77
65329;BME280;51941;52.210;5.158;2022-10-16T04:14:59;100918.97;;;13.12;82.56
65329;BME280;51941;52.210;5.158;2022-10-16T04:17:25;100923.25;;;13.13;82.52
65329;BME280;51941;52.210;5.158;2022-10-16T04:19:52;100927.53;;;13.14;83.04
65329;BME280;51941;52.210;5.158;2022-10-16T04:22:19;100918.66;;;13.09;82.79
65329;BME280;51941;52.210;5.158;2022-10-16T04:24:45;100921.41;;;13.14;83.12
65329;BME280;51941;52.210;5.158;2022-10-16T04:27:12;100925.28;;;13.06;82.88
65329;BME280;51941;52.210;5.158;2022-10-16T04:29:40;100939.25;;;13.18;82.89
65329;BME280;51941;52.210;5.158;2022-10-16T04:32:08;100955.75;;;13.20;82.89
65329;BME280;51941;52.210;5.158;2022-10-16T04:34:35;100954.56;;;13.11;83.50
65329;BME280;51941;52.210;5.158;2022-10-16T04:37:03;100929.31;;;12.92;83.21
65329;BME280;51941;52.210;5.158;2022-10-16T04:39:30;100967.88;;;13.11;83.93
65329;BME280;51941;52.210;5.158;2022-10-16T04:41:56;100963.91;;;13.14;83.66
65329;BME280;51941;52.210;5.158;2022-10-16T04:44:23;100952.81;;;13.00;83.45
65329;BME280;51941;52.210;5.158;2022-10-16T04:46:51;100971.56;;;13.10;83.89
65329;BME280;51941;52.210;5.158;2022-10-16T04:49:18;100972.03;;;13.07;83.71
65329;BME280;51941;52.210;5.158;2022-10-16T04:51:44;100967.72;;;13.01;83.84
65329;BME280;51941;52.210;5.158;2022-10-16T04:54:11;100959.50;;;12.86;84.14
65329;BME280;51941;52.210;5.158;2022-10-16T04:56:38;100973.19;;;12.94;83.81
65329;BME280;51941;52.210;5.158;2022-10-16T04:59:12;100981.41;;;12.93;83.81
65329;BME280;51941;52.210;5.158;2022-10-16T05:01:39;100986.47;;;12.94;84.08
65329;BME280;51941;52.210;5.158;2022-10-16T05:04:08;100981.56;;;12.86;83.98
65329;BME280;51941;52.210;5.158;2022-10-16T05:06:35;101003.53;;;12.99;84.24
65329;BME280;51941;52.210;5.158;2022-10-16T05:09:02;101005.25;;;13.05;83.94
65329;BME280;51941;52.210;5.158;2022-10-16T05:11:29;101001.78;;;13.04;84.17
65329;BME280;51941;52.210;5.158;2022-10-16T05:13:56;101017.22;;;13.07;84.32
65329;BME280;51941;52.210;5.158;2022-10-16T05:16:22;101016.97;;;13.09;84.08
65329;BME280;51941;52.210;5.158;2022-10-16T05:18:50;101016.16;;;13.08;84.14
65329;BME280;51941;52.210;5.158;2022-10-16T05:21:19;101019.97;;;13.12;84.03
65329;BME280;51941;52.210;5.158;2022-10-16T05:23:46;101017.31;;;13.12;84.25
65329;BME280;51941;52.210;5.158;2022-10-16T05:26:12;101022.16;;;13.15;84.30
65329;BME280;51941;52.210;5.158;2022-10-16T05:28:39;101013.22;;;13.05;84.10
65329;BME280;51941;52.210;5.158;2022-10-16T05:31:06;101038.16;;;13.20;84.05
65329;BME280;51941;52.210;5.158;2022-10-16T05:33:33;101036.31;;;13.21;84.16
65329;BME280;51941;52.210;5.158;2022-10-16T05:36:01;101040.81;;;13.20;84.35
65329;BME280;51941;52.210;5.158;2022-10-16T05:38:29;101046.94;;;13.21;84.25
65329;BME280;51941;52.210;5.158;2022-10-16T05:40:56;101053.53;;;13.18;84.64
65329;BME280;51941;52.210;5.158;2022-10-16T05:43:23;101060.31;;;13.26;84.27
65329;BME280;51941;52.210;5.158;2022-10-16T05:45:54;101012.47;;;12.92;84.26
65329;BME280;51941;52.210;5.158;2022-10-16T05:48:21;101068.53;;;13.24;84.87
65329;BME280;51941;52.210;5.158;2022-10-16T05:50:48;101039.03;;;13.09;84.55
65329;BME280;51941;52.210;5.158;2022-10-16T05:53:22;101071.03;;;13.31;84.51
65329;BME280;51941;52.210;5.158;2022-10-16T05:55:55;101080.84;;;13.30;84.86
65329;BME280;51941;52.210;5.158;2022-10-16T05:58:22;101075.31;;;13.32;84.59
65329;BME280;51941;52.210;5.158;2022-10-16T06:00:53;101076.34;;;13.31;84.57
65329;BME280;51941;52.210;5.158;2022-10-16T06:03:20;101061.44;;;13.13;84.59
65329;BME280;51941;52.210;5.158;2022-10-16T06:05:47;101061.69;;;13.12;84.89
65329;BME280;51941;52.210;5.158;2022-10-16T06:08:13;101100.28;;;13.31;85.06
65329;BME280;51941;52.210;5.158;2022-10-16T06:10:40;101107.84;;;13.22;85.76
65329;BME280;51941;52.210;5.158;2022-10-16T06:13:08;101099.38;;;13.25;86.10
65329;BME280;51941;52.210;5.158;2022-10-16T06:15:35;101098.31;;;13.26;85.93
65329;BME280;51941;52.210;5.158;2022-10-16T06:18:04;101105.50;;;13.26;86.04
65329;BME280;51941;52.210;5.158;2022-10-16T06:20:31;101093.81;;;13.27;85.97
65329;BME280;51941;52.210;5.158;2022-10-16T06:22:57;101097.28;;;13.27;85.99
65329;BME280;51941;52.210;5.158;2022-10-16T06:25:24;101091.41;;;13.25;85.98
65329;BME280;51941;52.210;5.158;2022-10-16T06:27:51;101088.19;;;13.23;86.38
65329;BME280;51941;52.210;5.158;2022-10-16T06:30:19;101090.28;;;13.21;86.19
65329;BME280;51941;52.210;5.158;2022-10-16T06:32:45;101101.16;;;13.20;86.31
65329;BME280;51941;52.210;5.158;2022-10-16T06:35:12;101104.28;;;13.17;86.78
65329;BME280;51941;52.210;5.158;2022-10-16T06:37:39;101105.59;;;13.14;86.77
65329;BME280;51941;52.210;5.158;2022-10-16T06:40:06;101100.91;;;13.05;86.95
65329;BME280;51941;52.210;5.158;2022-10-16T06:42:33;101089.88;;;12.96;87.00
65329;BME280;51941;52.210;5.158;2022-10-16T06:45:00;101109.75;;;13.10;87.07
65329;BME280;51941;52.210;5.158;2022-10-16T06:47:28;101110.34;;;13.12;86.71
65329;BME280;51941;52.210;5.158;2022-10-16T06:49:55;101115.41;;;13.14;86.87
65329;BME280;51941;52.210;5.158;2022-10-16T06:52:22;101113.81;;;13.13;87.36
65329;BME280;51941;52.210;5.158;2022-10-16T06:54:49;101064.41;;;12.83;87.26
65329;BME280;51941;52.210;5.158;2022-10-16T06:57:16;101095.03;;;13.03;87.48
65329;BME280;51941;52.210;5.158;2022-10-16T06:59:43;101124.75;;;13.16;87.83
65329;BME280;51941;52.210;5.158;2022-10-16T07:02:09;101132.81;;;13.21;87.57
65329;BME280;51941;52.210;5.158;2022-10-16T07:04:41;101109.75;;;13.10;87.72
65329;BME280;51941;52.210;5.158;2022-10-16T07:07:08;101138.06;;;13.33;87.63
65329;BME280;51941;52.210;5.158;2022-10-16T07:09:35;101146.94;;;13.39;87.55
65329;BME280;51941;52.210;5.158;2022-10-16T07:12:01;101156.38;;;13.46;87.48
65329;BME280;51941;52.210;5.158;2022-10-16T07:14:28;101168.22;;;13.55;87.24
65329;BME280;51941;52.210;5.158;2022-10-16T07:16:55;101165.41;;;13.62;87.17
65329;BME280;51941;52.210;5.158;2022-10-16T07:19:22;101169.19;;;13.66;86.71
65329;BME280;51941;52.210;5.158;2022-10-16T07:21:51;101166.84;;;13.69;86.66
65329;BME280;51941;52.210;5.158;2022-10-16T07:24:18;101049.19;;;12.96;86.42
65329;BME280;51941;52.210;5.158;2022-10-16T07:26:45;101142.69;;;13.54;86.43
65329;BME280;51941;52.210;5.158;2022-10-16T07:29:13;101183.78;;;13.80;86.08
65329;BME280;51941;52.210;5.158;2022-10-16T07:31:40;101186.13;;;13.77;85.90
65329;BME280;51941;52.210;5.158;2022-10-16T07:34:07;101198.88;;;13.75;85.74
65329;BME280;51941;52.210;5.158;2022-10-16T07:36:34;101198.44;;;13.83;86.11
65329;BME280;51941;52.210;5.158;2022-10-16T07:39:02;101209.44;;;13.86;85.75
65329;BME280;51941;52.210;5.158;2022-10-16T07:41:29;101207.31;;;13.88;85.67
65329;BME280;51941;52.210;5.158;2022-10-16T07:43:58;101220.59;;;14.05;86.29
65329;BME280;51941;52.210;5.158;2022-10-16T07:46:26;101243.34;;;14.29;86.13
65329;BME280;51941;52.210;5.158;2022-10-16T07:48:53;101242.91;;;14.37;85.18
65329;BME280;51941;52.210;5.158;2022-10-16T07:51:21;101247.50;;;14.42;84.72
65329;BME280;51941;52.210;5.158;2022-10-16T07:53:49;101229.84;;;14.36;84.62
65329;BME280;51941;52.210;5.158;2022-10-16T07:56:18;101227.28;;;14.24;83.93
65329;BME280;51941;52.210;5.158;2022-10-16T07:58:46;101238.50;;;14.26;84.16
65329;BME280;51941;52.210;5.158;2022-10-16T08:01:15;101240.59;;;14.24;84.00
65329;BME280;51941;52.210;5.158;2022-10-16T08:03:43;101235.44;;;14.18;84.03
65329;BME280;51941;52.210;5.158;2022-10-16T08:06:10;101229.97;;;14.07;83.74
65329;BME280;51941;52.210;5.158;2022-10-16T08:08:36;101236.31;;;14.06;83.94
65329;BME280;51941;52.210;5.158;2022-10-16T08:11:03;101225.28;;;13.98;84.02
65329;BME280;51941;52.210;5.158;2022-10-16T08:13:32;101261.72;;;14.14;84.31
65329;BME280;51941;52.210;5.158;2022-10-16T08:15:59;101267.06;;;14.14;84.57
65329;BME280;51941;52.210;5.158;2022-10-16T08:18:25;101272.22;;;14.21;84.34
65329;BME280;51941;52.210;5.158;2022-10-16T08:20:55;101267.16;;;14.19;84.41
65329;BME280;51941;52.210;5.158;2022-10-16T08:23:23;101277.38;;;14.27;84.34
65329;BME280;51941;52.210;5.158;2022-10-16T08:25:51;101277.22;;;14.34;83.90
65329;BME280;51941;52.210;5.158;2022-10-16T08:28:19;101279.38;;;14.37;83.94
65329;BME280;51941;52.210;5.158;2022-10-16T08:30:47;101281.00;;;14.38;83.88
65329;BME280;51941;52.210;5.158;2022-10-16T08:33:13;101283.72;;;14.43;83.99
65329;BME280;51941;52.210;5.158;2022-10-16T08:35:40;101282.75;;;14.49;83.85
65329;BME280;51941;52.210;5.158;2022-10-16T08:38:07;101293.28;;;14.56;83.63
65329;BME280;51941;52.210;5.158;2022-10-16T08:40:36;101298.66;;;14.61;83.68
65329;BME280;51941;52.210;5.158;2022-10-16T08:46:13;101302.84;;;14.73;83.46
65329;BME280;51941;52.210;5.158;2022-10-16T08:48:45;101294.28;;;14.71;83.43
65329;BME280;51941;52.210;5.158;2022-10-16T08:51:19;101303.22;;;14.82;83.01
65329;BME280;51941;52.210;5.158;2022-10-16T08:53:51;101307.75;;;14.82;82.92
65329;BME280;51941;52.210;5.158;2022-10-16T08:56:18;101298.22;;;14.69;82.84
65329;BME280;51941;52.210;5.158;2022-10-16T08:58:46;101317.97;;;14.90;82.86
65329;BME280;51941;52.210;5.158;2022-10-16T09:01:17;101309.41;;;14.88;82.86
65329;BME280;51941;52.210;5.158;2022-10-16T09:03:58;101333.00;;;15.01;82.54
65329;BME280;51941;52.210;5.158;2022-10-16T09:06:35;101336.00;;;15.04;82.40
65329;BME280;51941;52.210;5.158;2022-10-16T09:09:18;101330.91;;;15.03;82.33
65329;BME280;51941;52.210;5.158;2022-10-16T09:11:54;101347.16;;;15.01;82.24
65329;BME280;51941;52.210;5.158;2022-10-16T09:14:39;101345.94;;;15.09;82.06
65329;BME280;51941;52.210;5.158;2022-10-16T09:17:21;101356.59;;;15.31;82.15
65329;BME280;51941;52.210;5.158;2022-10-16T09:19:54;101364.47;;;15.42;82.03
65329;BME280;51941;52.210;5.158;2022-10-16T09:22:26;101365.63;;;15.51;81.40
65329;BME280;51941;52.210;5.158;2022-10-16T09:24:54;101369.13;;;15.52;80.80
65329;BME280;51941;52.210;5.158;2022-10-16T09:27:21;101359.13;;;15.42;80.74
65329;BME280;51941;52.210;5.158;2022-10-16T09:29:49;101369.81;;;15.42;80.70
65329;BME280;51941;52.210;5.158;2022-10-16T09:32:19;101374.34;;;15.42;80.81
65329;BME280;51941;52.210;5.158;2022-10-16T09:34:48;101379.44;;;15.43;80.75
65329;BME280;51941;52.210;5.158;2022-10-16T09:37:18;101371.50;;;15.53;80.74
65329;BME280;51941;52.210;5.158;2022-10-16T09:39:48;101360.59;;;15.55;80.42
65329;BME280;51941;52.210;5.158;2022-10-16T09:42:16;101374.59;;;15.62;79.59
65329;BME280;51941;52.210;5.158;2022-10-16T09:44:47;101382.00;;;15.60;79.39
65329;BME280;51941;52.210;5.158;2022-10-16T09:47:19;101343.56;;;15.34;79.45
65329;BME280;51941;52.210;5.158;2022-10-16T09:49:51;101383.25;;;15.52;78.66
65329;BME280;51941;52.210;5.158;2022-10-16T09:52:18;101386.75;;;15.53;78.99
65329;BME280;51941;52.210;5.158;2022-10-16T09:54:50;101383.78;;;15.54;79.26
65329;BME280;51941;52.210;5.158;2022-10-16T09:57:17;101353.47;;;15.39;79.03
65329;BME280;51941;52.210;5.158;2022-10-16T09:59:47;101391.16;;;15.64;79.06
65329;BME280;51941;52.210;5.158;2022-10-16T10:02:16;101385.88;;;15.69;78.87
65329;BME280;51941;52.210;5.158;2022-10-16T10:04:49;101396.00;;;15.94;78.69
65329;BME280;51941;52.210;5.158;2022-10-16T10:07:24;101396.34;;;16.03;77.88
65329;BME280;51941;52.210;5.158;2022-10-16T10:09:52;101384.09;;;16.07;76.97
65329;BME280;51941;52.210;5.158;2022-10-16T10:12:21;101397.88;;;16.25;77.48
65329;BME280;51941;52.210;5.158;2022-10-16T10:14:49;101397.63;;;16.27;76.69
65329;BME280;51941;52.210;5.158;2022-10-16T10:17:20;101399.03;;;16.35;76.77
65329;BME280;51941;52.210;5.158;2022-10-16T10:19:50;101404.16;;;16.41;76.44
65329;BME280;51941;52.210;5.158;2022-10-16T10:22:21;101404.75;;;16.48;75.91
65329;BME280;51941;52.210;5.158;2022-10-16T10:25:00;101397.56;;;16.54;75.74
65329;BME280;51941;52.210;5.158;2022-10-16T10:27:35;101413.66;;;16.59;75.39
65329;BME280;51941;52.210;5.158;2022-10-16T10:30:09;101421.25;;;16.72;75.45
65329;BME280;51941;52.210;5.158;2022-10-16T10:32:46;101420.53;;;16.87;75.38
65329;BME280;51941;52.210;5.158;2022-10-16T10:35:22;101421.47;;;17.08;74.87
65329;BME280;51941;52.210;5.158;2022-10-16T10:38:02;101422.41;;;17.33;73.78
65329;BME280;51941;52.210;5.158;2022-10-16T10:40:43;101430.50;;;17.49;72.95
65329;BME280;51941;52.210;5.158;2022-10-16T10:43:21;101381.97;;;17.30;72.20
65329;BME280;51941;52.210;5.158;2022-10-16T10:45:55;101425.38;;;17.42;70.86
65329;BME280;51941;52.210;5.158;2022-10-16T10:48:41;101413.81;;;17.31;70.96
65329;BME280;51941;52.210;5.158;2022-10-16T10:51:20;101434.78;;;17.50;70.67
65329;BME280;51941;52.210;5.158;2022-10-16T10:53:55;101434.50;;;17.46;70.32
65329;BME280;51941;52.210;5.158;2022-10-16T10:56:41;101432.56;;;17.31;69.81
65329;BME280;51941;52.210;5.158;2022-10-16T10:59:23;101435.47;;;17.20;70.44
65329;BME280;51941;52.210;5.158;2022-10-16T11:01:56;101440.69;;;16.99;70.62
65329;BME280;51941;52.210;5.158;2022-10-16T11:07:32;101443.75;;;16.76;71.33
65329;BME280;51941;52.210;5.158;2022-10-16T11:10:03;101455.53;;;16.80;71.50
65329;BME280;51941;52.210;5.158;2022-10-16T11:12:36;101452.63;;;16.87;71.76
65329;BME280;51941;52.210;5.158;2022-10-16T11:15:12;101449.19;;;16.91;70.66
65329;BME280;51941;52.210;5.158;2022-10-16T11:17:44;101461.28;;;16.99;70.29
65329;BME280;51941;52.210;5.158;2022-10-16T11:20:19;101458.63;;;17.04;69.64
65329;BME280;51941;52.210;5.158;2022-10-16T11:22:50;101464.28;;;17.08;69.04
65329;BME280;51941;52.210;5.158;2022-10-16T11:25:21;101441.69;;;16.88;67.98
65329;BME280;51941;52.210;5.158;2022-10-16T11:27:52;101465.88;;;17.09;67.91
65329;BME280;51941;52.210;5.158;2022-10-16T11:30:22;101472.91;;;17.20;67.89
65329;BME280;51941;52.210;5.158;2022-10-16T11:33:00;101485.81;;;17.33;67.37
65329;BME280;51941;52.210;5.158;2022-10-16T11:35:39;101475.69;;;17.40;66.99
65329;BME280;51941;52.210;5.158;2022-10-16T11:38:14;101473.31;;;17.43;67.09
65329;BME280;51941;52.210;5.158;2022-10-16T11:40:43;101472.78;;;17.47;67.01
65329;BME280;51941;52.210;5.158;2022-10-16T11:43:17;101475.72;;;17.50;66.64
65329;BME280;51941;52.210;5.158;2022-10-16T11:45:51;101458.56;;;17.41;66.65
65329;BME280;51941;52.210;5.158;2022-10-16T11:48:26;101480.75;;;17.36;64.42
65329;BME280;51941;52.210;5.158;2022-10-16T11:50:58;101481.75;;;17.20;64.89
65329;BME280;51941;52.210;5.158;2022-10-16T11:53:39;101484.09;;;17.12;64.82
65329;BME280;51941;52.210;5.158;2022-10-16T11:56:12;101488.03;;;16.99;65.30
65329;BME280;51941;52.210;5.158;2022-10-16T11:58:46;101482.56;;;16.84;64.67
65329;BME280;51941;52.210;5.158;2022-10-16T12:01:21;101491.06;;;16.76;65.31
65329;BME280;51941;52.210;5.158;2022-10-16T12:04:00;101502.50;;;16.71;64.75
65329;BME280;51941;52.210;5.158;2022-10-16T12:06:34;101495.00;;;16.68;65.37
65329;BME280;51941;52.210;5.158;2022-10-16T12:09:03;101493.56;;;16.60;64.87
65329;BME280;51941;52.210;5.158;2022-10-16T12:11:36;101494.63;;;16.59;64.00
65329;BME280;51941;52.210;5.158;2022-10-16T12:14:06;101501.44;;;16.67;64.12
65329;BME280;51941;52.210;5.158;2022-10-16T12:16:33;101494.81;;;16.75;63.64
65329;BME280;51941;52.210;5.158;2022-10-16T12:19:11;101502.09;;;16.84;63.13
65329;BME280;51941;52.210;5.158;2022-10-16T12:21:39;101501.88;;;16.91;63.30
65329;BME280;51941;52.210;5.158;2022-10-16T12:24:21;101507.56;;;16.99;62.75
65329;BME280;51941;52.210;5.158;2022-10-16T12:26:49;101510.50;;;17.03;62.57
65329;BME280;51941;52.210;5.158;2022-10-16T12:29:31;101506.28;;;17.12;62.85
65329;BME280;51941;52.210;5.158;2022-10-16T12:31:59;101499.38;;;17.21;63.24
65329;BME280;51941;52.210;5.158;2022-10-16T12:34:28;101512.56;;;17.28;62.96
65329;BME280;51941;52.210;5.158;2022-10-16T12:37:09;101492.47;;;17.25;63.08
65329;BME280;51941;52.210;5.158;2022-10-16T12:39:36;101515.31;;;17.43;62.54
65329;BME280;51941;52.210;5.158;2022-10-16T12:42:05;101519.59;;;17.44;62.60
65329;BME280;51941;52.210;5.158;2022-10-16T12:44:33;101521.75;;;17.47;62.71
65329;BME280;51941;52.210;5.158;2022-10-16T12:47:00;101510.78;;;17.49;62.52
65329;BME280;51941;52.210;5.158;2022-10-16T12:49:34;101508.91;;;17.49;62.55
65329;BME280;51941;52.210;5.158;2022-10-16T12:52:03;101511.56;;;17.44;62.39
65329;BME280;51941;52.210;5.158;2022-10-16T12:54:34;101514.25;;;17.44;62.39
65329;BME280;51941;52.210;5.158;2022-10-16T12:57:12;101488.19;;;17.24;62.79
65329;BME280;51941;52.210;5.158;2022-10-16T12:59:50;101498.38;;;17.32;62.82
65329;BME280;51941;52.210;5.158;2022-10-16T13:02:39;101513.94;;;17.40;62.13
65329;BME280;51941;52.210;5.158;2022-10-16T13:05:32;101524.66;;;17.40;62.78
65329;BME280;51941;52.210;5.158;2022-10-16T13:08:22;101519.84;;;17.37;62.96
65329;BME280;51941;52.210;5.158;2022-10-16T13:10:59;101501.78;;;17.18;63.20